sensor_id;sensor_type;location;lat;lon;timestamp;temperature;humidity
2162;DHT22;1087;50.226;8.682;2022-09-09T00:00:55;20.30;99.90
2162;DHT22;1087;50.226;8.682;2022-09-09T00:03:26;20.30;99.90
2162;DHT22;1087;50.226;8.682;2022-09-09T00:06:31;20.30;99.90
2162;DHT22;1087;50.226;8.682;2022-09-09T00:12:00;20.30;99.90
2162;DHT22;1087;50.226;8.682;2022-09-09T00:14:37;20.20;99.90
2162;DHT22;1087;50.226;8.682;2022-09-09T00:17:09;20.20;99.90
2162;DHT22;1087;50.226;8.682;2022-09-09T00:19:44;20.20;99.90
2162;DHT22;1087;50.226;8.682;2022-09-09T00:22:20;20.10;99.90
2162;DHT22;1087;50.226;8.682;2022-09-09T00:24:53;20.00;99.90
2162;DHT22;1087;50.226;8.682;2022-09-09T00:27:31;20.00;99.90
2162;DHT22;1087;50.226;8.682;2022-09-09T00:30:18;20.10;99.90
2162;DHT22;1087;50.226;8.682;2022-09-09T00:32:46;20.10;99.90
2162;DHT22;1087;50.226;8.682;2022-09-09T00:35:25;20.10;99.90
2162;DHT22;1087;50.226;8.682;2022-09-09T00:37:54;20.10;99.90
2162;DHT22;1087;50.226;8.682;2022-09-09T00:40:33;20.10;99.90
2162;DHT22;1087;50.226;8.682;2022-09-09T00:43:10;20.20;99.90
2162;DHT22;1087;50.226;8.682;2022-09-09T00:51:46;20.10;99.90
2162;DHT22;1087;50.226;8.682;2022-09-09T00:54:28;20.10;99.90
2162;DHT22;1087;50.226;8.682;2022-09-09T00:59:51;20.00;99.90
2162;DHT22;1087;50.226;8.682;2022-09-09T01:02:30;20.00;99.90
2162;DHT22;1087;50.226;8.682;2022-09-09T01:05:05;20.00;99.90
2162;DHT22;1087;50.226;8.682;2022-09-09T01:07:32;20.00;99.90
2162;DHT22;1087;50.226;8.682;2022-09-09T01:09:59;20.00;99.90
2162;DHT22;1087;50.226;8.682;2022-09-09T01:12:42;19.90;99.90
2162;DHT22;1087;50.226;8.682;2022-09-09T01:15:10;19.90;99.90
2162;DHT22;1087;50.226;8.682;2022-09-09T01:17:50;19.90;99.90
2162;DHT22;1087;50.226;8.682;2022-09-09T01:20:25;19.90;99.90
2162;DHT22;1087;50.226;8.682;2022-09-09T01:26:19;19.80;99.90
2162;DHT22;1087;50.226;8.682;2022-09-09T01:28:48;19.80;99.90
2162;DHT22;1087;50.226;8.682;2022-09-09T01:31:20;19.70;99.90
2162;DHT22;1087;50.226;8.682;2022-09-09T01:33:47;19.60;99.90
2162;DHT22;1087;50.226;8.682;2022-09-09T01:38:43;19.40;99.90
2162;DHT22;1087;50.226;8.682;2022-09-09T01:41:09;19.30;99.90
2162;DHT22;1087;50.226;8.682;2022-09-09T01:43:35;19.40;99.90
2162;DHT22;1087;50.226;8.682;2022-09-09T01:46:01;19.30;99.90
2162;DHT22;1087;50.226;8.682;2022-09-09T01:48:28;19.40;99.90
2162;DHT22;1087;50.226;8.682;2022-09-09T01:50:53;19.50;99.90
2162;DHT22;1087;50.226;8.682;2022-09-09T01:53:21;19.50;99.90
2162;DHT22;1087;50.226;8.682;2022-09-09T01:58:34;19.50;99.90
2162;DHT22;1087;50.226;8.682;2022-09-09T02:03:32;19.50;99.90
2162;DHT22;1087;50.226;8.682;2022-09-09T02:06:16;19.50;99.90
2162;DHT22;1087;50.226;8.682;2022-09-09T02:08:49;19.50;99.90
2162;DHT22;1087;50.226;8.682;2022-09-09T02:11:20;19.50;99.90
2162;DHT22;1087;50.226;8.682;2022-09-09T02:13:48;19.60;99.90
2162;DHT22;1087;50.226;8.682;2022-09-09T02:19:01;19.40;99.90
2162;DHT22;1087;50.226;8.682;2022-09-09T02:21:29;19.20;99.90
2162;DHT22;1087;50.226;8.682;2022-09-09T02:23:58;18.90;99.90
2162;DHT22;1087;50.226;8.682;2022-09-09T02:26:25;19.00;99.90
2162;DHT22;1087;50.226;8.682;2022-09-09T02:28:53;19.10;99.90
2162;DHT22;1087;50.226;8.682;2022-09-09T02:31:22;19.20;99.90
2162;DHT22;1087;50.226;8.682;2022-09-09T02:33:56;19.20;99.90
2162;DHT22;1087;50.226;8.682;2022-09-09T02:36:24;19.20;99.90
2162;DHT22;1087;50.226;8.682;2022-09-09T02:38:51;19.30;99.90
2162;DHT22;1087;50.226;8.682;2022-09-09T02:41:33;19.40;99.90
2162;DHT22;1087;50.226;8.682;2022-09-09T02:44:00;19.40;99.90
2162;DHT22;1087;50.226;8.682;2022-09-09T02:46:55;19.50;99.90
2162;DHT22;1087;50.226;8.682;2022-09-09T02:58:03;19.50;99.90
2162;DHT22;1087;50.226;8.682;2022-09-09T03:00:31;19.40;99.90
2162;DHT22;1087;50.226;8.682;2022-09-09T03:02:57;19.40;99.90
2162;DHT22;1087;50.226;8.682;2022-09-09T03:05:23;19.30;99.90
2162;DHT22;1087;50.226;8.682;2022-09-09T03:07:48;19.40;99.90
2162;DHT22;1087;50.226;8.682;2022-09-09T03:10:16;19.40;99.90
2162;DHT22;1087;50.226;8.682;2022-09-09T03:12:42;19.40;99.90
2162;DHT22;1087;50.226;8.682;2022-09-09T03:15:08;19.50;99.90
2162;DHT22;1087;50.226;8.682;2022-09-09T03:17:35;19.50;99.90
2162;DHT22;1087;50.226;8.682;2022-09-09T03:20:02;19.40;99.90
2162;DHT22;1087;50.226;8.682;2022-09-09T03:22:28;19.30;99.90
2162;DHT22;1087;50.226;8.682;2022-09-09T03:24:53;19.30;99.90
2162;DHT22;1087;50.226;8.682;2022-09-09T03:27:18;19.40;99.90
2162;DHT22;1087;50.226;8.682;2022-09-09T03:29:45;19.40;99.90
2162;DHT22;1087;50.226;8.682;2022-09-09T03:32:12;19.40;99.90
2162;DHT22;1087;50.226;8.682;2022-09-09T03:34:38;19.40;99.90
2162;DHT22;1087;50.226;8.682;2022-09-09T03:37:05;19.30;99.90
2162;DHT22;1087;50.226;8.682;2022-09-09T03:39:31;19.20;99.90
2162;DHT22;1087;50.226;8.682;2022-09-09T03:41:56;19.30;99.90
2162;DHT22;1087;50.226;8.682;2022-09-09T03:44:22;19.30;99.90
2162;DHT22;1087;50.226;8.682;2022-09-09T03:46:48;19.30;99.90
2162;DHT22;1087;50.226;8.682;2022-09-09T03:49:13;19.30;99.90
2162;DHT22;1087;50.226;8.682;2022-09-09T03:51:39;19.40;99.90
2162;DHT22;1087;50.226;8.682;2022-09-09T03:54:05;19.40;99.90
2162;DHT22;1087;50.226;8.682;2022-09-09T03:56:34;19.40;99.90
2162;DHT22;1087;50.226;8.682;2022-09-09T03:58:59;19.40;99.90
2162;DHT22;1087;50.226;8.682;2022-09-09T04:01:25;19.40;99.90
2162;DHT22;1087;50.226;8.682;2022-09-09T04:03:50;19.50;99.90
2162;DHT22;1087;50.226;8.682;2022-09-09T04:06:17;19.50;99.90
2162;DHT22;1087;50.226;8.682;2022-09-09T04:08:43;19.40;99.90
2162;DHT22;1087;50.226;8.682;2022-09-09T04:11:09;19.20;99.90
2162;DHT22;1087;50.226;8.682;2022-09-09T04:13:35;19.20;99.90
2162;DHT22;1087;50.226;8.682;2022-09-09T04:16:03;19.10;99.90
2162;DHT22;1087;50.226;8.682;2022-09-09T04:18:29;19.10;99.90
2162;DHT22;1087;50.226;8.682;2022-09-09T04:20:55;19.10;99.90
2162;DHT22;1087;50.226;8.682;2022-09-09T04:23:24;19.00;99.90
2162;DHT22;1087;50.226;8.682;2022-09-09T04:25:54;19.10;99.90
2162;DHT22;1087;50.226;8.682;2022-09-09T04:28:22;19.00;99.90
2162;DHT22;1087;50.226;8.682;2022-09-09T04:30:48;19.00;99.90
2162;DHT22;1087;50.226;8.682;2022-09-09T04:33:14;18.80;99.90
2162;DHT22;1087;50.226;8.682;2022-09-09T04:35:45;18.90;99.90
2162;DHT22;1087;50.226;8.682;2022-09-09T04:38:11;18.90;99.90
2162;DHT22;1087;50.226;8.682;2022-09-09T04:40:36;18.90;99.90
2162;DHT22;1087;50.226;8.682;2022-09-09T04:43:03;19.00;99.90
2162;DHT22;1087;50.226;8.682;2022-09-09T04:45:30;19.10;99.90
2162;DHT22;1087;50.226;8.682;2022-09-09T04:47:56;19.10;99.90
2162;DHT22;1087;50.226;8.682;2022-09-09T04:50:21;19.20;99.90
2162;DHT22;1087;50.226;8.682;2022-09-09T04:52:47;19.20;99.90
2162;DHT22;1087;50.226;8.682;2022-09-09T04:55:13;19.20;99.90
2162;DHT22;1087;50.226;8.682;2022-09-09T04:57:39;19.20;99.90
2162;DHT22;1087;50.226;8.682;2022-09-09T05:00:05;19.10;99.90
2162;DHT22;1087;50.226;8.682;2022-09-09T05:02:31;19.20;99.90
2162;DHT22;1087;50.226;8.682;2022-09-09T05:04:57;19.10;99.90
2162;DHT22;1087;50.226;8.682;2022-09-09T05:07:23;19.00;99.90
2162;DHT22;1087;50.226;8.682;2022-09-09T05:09:48;19.00;99.90
2162;DHT22;1087;50.226;8.682;2022-09-09T05:12:15;19.10;99.90
2162;DHT22;1087;50.226;8.682;2022-09-09T05:14:42;19.20;99.90
2162;DHT22;1087;50.226;8.682;2022-09-09T05:17:08;19.20;99.90
2162;DHT22;1087;50.226;8.682;2022-09-09T05:19:33;19.20;99.90
2162;DHT22;1087;50.226;8.682;2022-09-09T05:21:59;19.30;99.90
2162;DHT22;1087;50.226;8.682;2022-09-09T05:24:25;19.30;99.90
2162;DHT22;1087;50.226;8.682;2022-09-09T05:26:51;19.30;99.90
2162;DHT22;1087;50.226;8.682;2022-09-09T05:29:17;19.30;99.90
2162;DHT22;1087;50.226;8.682;2022-09-09T05:31:47;19.40;99.90
2162;DHT22;1087;50.226;8.682;2022-09-09T05:34:13;19.40;99.90
2162;DHT22;1087;50.226;8.682;2022-09-09T05:36:38;19.40;99.90
2162;DHT22;1087;50.226;8.682;2022-09-09T05:39:04;19.10;99.90
2162;DHT22;1087;50.226;8.682;2022-09-09T05:41:29;19.10;99.90
2162;DHT22;1087;50.226;8.682;2022-09-09T05:43:56;19.00;99.90
2162;DHT22;1087;50.226;8.682;2022-09-09T05:46:23;19.10;99.90
2162;DHT22;1087;50.226;8.682;2022-09-09T05:48:50;19.10;99.90
2162;DHT22;1087;50.226;8.682;2022-09-09T05:51:21;19.10;99.90
2162;DHT22;1087;50.226;8.682;2022-09-09T05:53:48;19.20;99.90
2162;DHT22;1087;50.226;8.682;2022-09-09T05:56:16;19.00;99.90
2162;DHT22;1087;50.226;8.682;2022-09-09T05:58:43;18.90;99.90
2162;DHT22;1087;50.226;8.682;2022-09-09T06:01:15;19.00;99.90
2162;DHT22;1087;50.226;8.682;2022-09-09T06:03:43;19.00;99.90
2162;DHT22;1087;50.226;8.682;2022-09-09T06:06:11;19.10;99.90
2162;DHT22;1087;50.226;8.682;2022-09-09T06:08:39;19.00;99.90
2162;DHT22;1087;50.226;8.682;2022-09-09T06:11:22;19.00;99.90
2162;DHT22;1087;50.226;8.682;2022-09-09T06:13:49;19.10;99.90
2162;DHT22;1087;50.226;8.682;2022-09-09T06:16:18;19.10;99.90
2162;DHT22;1087;50.226;8.682;2022-09-09T06:18:44;19.10;99.90
2162;DHT22;1087;50.226;8.682;2022-09-09T06:21:17;19.10;99.90
2162;DHT22;1087;50.226;8.682;2022-09-09T06:23:43;19.00;99.90
2162;DHT22;1087;50.226;8.682;2022-09-09T06:26:15;19.10;99.90
2162;DHT22;1087;50.226;8.682;2022-09-09T06:28:43;19.10;99.90
2162;DHT22;1087;50.226;8.682;2022-09-09T06:31:11;19.10;99.90
2162;DHT22;1087;50.226;8.682;2022-09-09T06:33:40;19.10;99.90
2162;DHT22;1087;50.226;8.682;2022-09-09T06:36:14;19.00;99.90
2162;DHT22;1087;50.226;8.682;2022-09-09T06:38:43;19.00;99.90
2162;DHT22;1087;50.226;8.682;2022-09-09T06:41:10;19.00;99.90
2162;DHT22;1087;50.226;8.682;2022-09-09T06:43:36;19.20;99.90
2162;DHT22;1087;50.226;8.682;2022-09-09T06:48:29;19.20;99.90
2162;DHT22;1087;50.226;8.682;2022-09-09T06:51:03;19.20;99.90
2162;DHT22;1087;50.226;8.682;2022-09-09T06:53:29;19.30;99.90
2162;DHT22;1087;50.226;8.682;2022-09-09T06:55:55;19.20;99.90
2162;DHT22;1087;50.226;8.682;2022-09-09T06:58:21;19.20;99.90
2162;DHT22;1087;50.226;8.682;2022-09-09T07:00:49;19.20;99.90
2162;DHT22;1087;50.226;8.682;2022-09-09T07:03:15;19.30;99.90
2162;DHT22;1087;50.226;8.682;2022-09-09T07:05:40;19.30;99.90
2162;DHT22;1087;50.226;8.682;2022-09-09T07:08:06;19.30;99.90
2162;DHT22;1087;50.226;8.682;2022-09-09T07:10:32;19.40;99.90
2162;DHT22;1087;50.226;8.682;2022-09-09T07:12:59;19.40;99.90
2162;DHT22;1087;50.226;8.682;2022-09-09T07:15:25;19.40;99.90
2162;DHT22;1087;50.226;8.682;2022-09-09T07:17:51;19.40;99.90
2162;DHT22;1087;50.226;8.682;2022-09-09T07:20:18;19.30;99.90
2162;DHT22;1087;50.226;8.682;2022-09-09T07:22:44;19.20;99.90
2162;DHT22;1087;50.226;8.682;2022-09-09T07:25:09;19.30;99.90
2162;DHT22;1087;50.226;8.682;2022-09-09T07:27:35;19.30;99.90
2162;DHT22;1087;50.226;8.682;2022-09-09T07:30:01;19.40;99.90
2162;DHT22;1087;50.226;8.682;2022-09-09T07:32:27;19.50;99.90
2162;DHT22;1087;50.226;8.682;2022-09-09T07:34:53;19.50;99.90
2162;DHT22;1087;50.226;8.682;2022-09-09T07:37:18;19.40;99.90
2162;DHT22;1087;50.226;8.682;2022-09-09T07:39:44;19.30;99.90
2162;DHT22;1087;50.226;8.682;2022-09-09T07:42:10;19.30;99.90
2162;DHT22;1087;50.226;8.682;2022-09-09T07:44:37;19.20;99.90
2162;DHT22;1087;50.226;8.682;2022-09-09T07:47:05;19.20;99.90
2162;DHT22;1087;50.226;8.682;2022-09-09T07:49:31;19.30;99.90
2162;DHT22;1087;50.226;8.682;2022-09-09T07:51:57;19.40;99.90
2162;DHT22;1087;50.226;8.682;2022-09-09T07:54:23;19.30;99.90
2162;DHT22;1087;50.226;8.682;2022-09-09T07:56:49;19.30;99.90
2162;DHT22;1087;50.226;8.682;2022-09-09T07:59:16;19.40;99.90
2162;DHT22;1087;50.226;8.682;2022-09-09T08:01:47;19.50;99.90
2162;DHT22;1087;50.226;8.682;2022-09-09T08:04:16;19.40;99.90
2162;DHT22;1087;50.226;8.682;2022-09-09T08:06:54;19.30;99.90
2162;DHT22;1087;50.226;8.682;2022-09-09T08:09:20;19.30;99.90
2162;DHT22;1087;50.226;8.682;2022-09-09T08:11:47;19.30;99.90
2162;DHT22;1087;50.226;8.682;2022-09-09T08:14:13;19.40;99.90
2162;DHT22;1087;50.226;8.682;2022-09-09T08:16:42;19.50;99.90
2162;DHT22;1087;50.226;8.682;2022-09-09T08:19:08;19.40;99.90
2162;DHT22;1087;50.226;8.682;2022-09-09T08:21:35;19.50;99.90
2162;DHT22;1087;50.226;8.682;2022-09-09T08:24:03;19.50;99.90
2162;DHT22;1087;50.226;8.682;2022-09-09T08:26:36;19.70;99.90
2162;DHT22;1087;50.226;8.682;2022-09-09T08:29:04;19.50;99.90
2162;DHT22;1087;50.226;8.682;2022-09-09T08:31:32;19.50;99.90
2162;DHT22;1087;50.226;8.682;2022-09-09T08:33:59;19.60;99.90
2162;DHT22;1087;50.226;8.682;2022-09-09T08:36:28;19.70;99.90
2162;DHT22;1087;50.226;8.682;2022-09-09T08:38:56;19.90;99.90
2162;DHT22;1087;50.226;8.682;2022-09-09T08:41:39;19.70;99.90
2162;DHT22;1087;50.226;8.682;2022-09-09T08:50:26;19.80;99.90
2162;DHT22;1087;50.226;8.682;2022-09-09T08:53:05;19.90;99.90
2162;DHT22;1087;50.226;8.682;2022-09-09T08:55:54;19.80;99.90
2162;DHT22;1087;50.226;8.682;2022-09-09T08:58:25;19.90;99.90
2162;DHT22;1087;50.226;8.682;2022-09-09T09:01:54;19.70;99.90
2162;DHT22;1087;50.226;8.682;2022-09-09T09:04:16;19.80;99.90
2162;DHT22;1087;50.226;8.682;2022-09-09T09:07:00;19.90;99.90
2162;DHT22;1087;50.226;8.682;2022-09-09T09:12:06;20.10;99.90
2162;DHT22;1087;50.226;8.682;2022-09-09T09:14:35;20.10;99.90
2162;DHT22;1087;50.226;8.682;2022-09-09T09:17:04;20.20;99.90
2162;DHT22;1087;50.226;8.682;2022-09-09T09:19:33;20.20;99.90
2162;DHT22;1087;50.226;8.682;2022-09-09T09:27:58;20.20;99.90
2162;DHT22;1087;50.226;8.682;2022-09-09T09:30:29;20.20;99.90
2162;DHT22;1087;50.226;8.682;2022-09-09T09:33:05;20.00;99.90
2162;DHT22;1087;50.226;8.682;2022-09-09T09:35:34;20.00;99.90
2162;DHT22;1087;50.226;8.682;2022-09-09T09:37:59;19.90;99.90
2162;DHT22;1087;50.226;8.682;2022-09-09T09:40:27;19.40;99.90
2162;DHT22;1087;50.226;8.682;2022-09-09T09:42:53;19.10;99.90
2162;DHT22;1087;50.226;8.682;2022-09-09T09:48:05;19.20;99.90
2162;DHT22;1087;50.226;8.682;2022-09-09T09:50:32;19.30;99.90
2162;DHT22;1087;50.226;8.682;2022-09-09T09:53:03;19.40;99.90
2162;DHT22;1087;50.226;8.682;2022-09-09T09:55:31;19.60;99.90
2162;DHT22;1087;50.226;8.682;2022-09-09T09:58:05;19.80;99.90
2162;DHT22;1087;50.226;8.682;2022-09-09T10:00:32;19.80;99.90
2162;DHT22;1087;50.226;8.682;2022-09-09T10:03:01;19.60;99.90
2162;DHT22;1087;50.226;8.682;2022-09-09T10:05:29;19.70;99.90
2162;DHT22;1087;50.226;8.682;2022-09-09T10:08:12;19.80;99.90
2162;DHT22;1087;50.226;8.682;2022-09-09T10:11:18;19.80;99.90
2162;DHT22;1087;50.226;8.682;2022-09-09T10:16:46;19.90;99.90
2162;DHT22;1087;50.226;8.682;2022-09-09T10:19:21;19.90;99.90
2162;DHT22;1087;50.226;8.682;2022-09-09T10:22:14;19.90;99.90
2162;DHT22;1087;50.226;8.682;2022-09-09T10:24:57;19.80;99.90
2162;DHT22;1087;50.226;8.682;2022-09-09T10:33:04;19.70;99.90
2162;DHT22;1087;50.226;8.682;2022-09-09T10:35:43;19.60;99.90
2162;DHT22;1087;50.226;8.682;2022-09-09T10:52:11;19.90;99.90
2162;DHT22;1087;50.226;8.682;2022-09-09T10:57:35;19.80;99.90
2162;DHT22;1087;50.226;8.682;2022-09-09T11:00:14;19.90;99.90
2162;DHT22;1087;50.226;8.682;2022-09-09T11:02:41;20.00;99.90
2162;DHT22;1087;50.226;8.682;2022-09-09T11:05:17;20.10;99.90
2162;DHT22;1087;50.226;8.682;2022-09-09T11:07:52;20.10;99.90
2162;DHT22;1087;50.226;8.682;2022-09-09T11:10:33;20.20;99.90
2162;DHT22;1087;50.226;8.682;2022-09-09T11:13:04;20.30;99.90
2162;DHT22;1087;50.226;8.682;2022-09-09T11:15:36;20.40;99.90
2162;DHT22;1087;50.226;8.682;2022-09-09T11:18:04;20.40;99.90
2162;DHT22;1087;50.226;8.682;2022-09-09T11:20:31;20.60;99.90
2162;DHT22;1087;50.226;8.682;2022-09-09T11:23:03;20.70;99.90
2162;DHT22;1087;50.226;8.682;2022-09-09T11:25:36;20.70;99.90
2162;DHT22;1087;50.226;8.682;2022-09-09T11:28:36;20.70;99.90
2162;DHT22;1087;50.226;8.682;2022-09-09T11:34:24;20.90;99.90
2162;DHT22;1087;50.226;8.682;2022-09-09T11:36:56;20.80;99.90
2162;DHT22;1087;50.226;8.682;2022-09-09T11:41:52;20.90;99.90
2162;DHT22;1087;50.226;8.682;2022-09-09T11:44:29;20.70;99.90
2162;DHT22;1087;50.226;8.682;2022-09-09T11:46:55;20.80;99.90
2162;DHT22;1087;50.226;8.682;2022-09-09T11:49:50;20.90;99.90
2162;DHT22;1087;50.226;8.682;2022-09-09T11:52:22;21.00;99.90
2162;DHT22;1087;50.226;8.682;2022-09-09T11:54:49;21.00;99.90
2162;DHT22;1087;50.226;8.682;2022-09-09T11:57:34;21.10;99.90
2162;DHT22;1087;50.226;8.682;2022-09-09T12:00:01;21.10;99.90
2162;DHT22;1087;50.226;8.682;2022-09-09T12:02:28;21.10;99.90
2162;DHT22;1087;50.226;8.682;2022-09-09T12:05:06;21.20;99.90
2162;DHT22;1087;50.226;8.682;2022-09-09T12:07:59;21.10;99.90
2162;DHT22;1087;50.226;8.682;2022-09-09T12:10:37;21.10;99.90
2162;DHT22;1087;50.226;8.682;2022-09-09T12:13:21;21.00;99.90
2162;DHT22;1087;50.226;8.682;2022-09-09T12:15:50;21.00;99.90
2162;DHT22;1087;50.226;8.682;2022-09-09T12:18:33;20.90;99.90
2162;DHT22;1087;50.226;8.682;2022-09-09T12:24:01;20.90;99.90
2162;DHT22;1087;50.226;8.682;2022-09-09T12:26:50;20.90;99.90
2162;DHT22;1087;50.226;8.682;2022-09-09T12:36:43;20.90;99.90
2162;DHT22;1087;50.226;8.682;2022-09-09T12:39:27;20.90;99.90
2162;DHT22;1087;50.226;8.682;2022-09-09T12:41:55;21.00;99.90
2162;DHT22;1087;50.226;8.682;2022-09-09T12:44:24;21.00;99.90
2162;DHT22;1087;50.226;8.682;2022-09-09T12:46:51;21.10;99.90
2162;DHT22;1087;50.226;8.682;2022-09-09T12:51:56;21.00;99.90
2162;DHT22;1087;50.226;8.682;2022-09-09T12:54:22;21.00;99.90
2162;DHT22;1087;50.226;8.682;2022-09-09T12:56:49;21.10;99.90
2162;DHT22;1087;50.226;8.682;2022-09-09T12:59:39;21.10;99.90
2162;DHT22;1087;50.226;8.682;2022-09-09T13:02:25;21.10;99.90
2162;DHT22;1087;50.226;8.682;2022-09-09T13:04:52;21.20;99.90
2162;DHT22;1087;50.226;8.682;2022-09-09T13:07:19;21.00;99.90
2162;DHT22;1087;50.226;8.682;2022-09-09T13:09:46;20.80;99.90
2162;DHT22;1087;50.226;8.682;2022-09-09T13:12:22;20.70;99.90
2162;DHT22;1087;50.226;8.682;2022-09-09T13:14:50;20.80;99.90
2162;DHT22;1087;50.226;8.682;2022-09-09T13:17:21;20.60;99.90
2162;DHT22;1087;50.226;8.682;2022-09-09T13:19:48;20.80;99.90
2162;DHT22;1087;50.226;8.682;2022-09-09T13:22:34;20.90;99.90
2162;DHT22;1087;50.226;8.682;2022-09-09T13:25:03;20.90;99.90
2162;DHT22;1087;50.226;8.682;2022-09-09T13:27:34;20.80;99.90
2162;DHT22;1087;50.226;8.682;2022-09-09T13:30:23;21.00;99.90
2162;DHT22;1087;50.226;8.682;2022-09-09T13:35:47;21.30;99.90
2162;DHT22;1087;50.226;8.682;2022-09-09T13:38:15;21.40;99.90
2162;DHT22;1087;50.226;8.682;2022-09-09T13:40:52;21.30;99.90
2162;DHT22;1087;50.226;8.682;2022-09-09T13:43:22;21.40;99.90
2162;DHT22;1087;50.226;8.682;2022-09-09T13:46:03;21.20;99.90
2162;DHT22;1087;50.226;8.682;2022-09-09T13:48:29;21.20;99.90
2162;DHT22;1087;50.226;8.682;2022-09-09T13:50:58;21.20;99.90
2162;DHT22;1087;50.226;8.682;2022-09-09T13:53:24;21.30;99.90
2162;DHT22;1087;50.226;8.682;2022-09-09T13:55:50;21.30;99.90
2162;DHT22;1087;50.226;8.682;2022-09-09T13:58:17;21.30;99.90
2162;DHT22;1087;50.226;8.682;2022-09-09T14:00:47;21.30;99.90
2162;DHT22;1087;50.226;8.682;2022-09-09T14:03:13;21.50;99.90
2162;DHT22;1087;50.226;8.682;2022-09-09T14:05:39;21.50;99.90
2162;DHT22;1087;50.226;8.682;2022-09-09T14:08:06;21.60;99.90
2162;DHT22;1087;50.226;8.682;2022-09-09T14:10:32;21.50;99.90
2162;DHT22;1087;50.226;8.682;2022-09-09T14:12:58;21.60;99.90
2162;DHT22;1087;50.226;8.682;2022-09-09T14:15:23;21.60;99.90
2162;DHT22;1087;50.226;8.682;2022-09-09T14:17:49;21.60;99.90
2162;DHT22;1087;50.226;8.682;2022-09-09T14:20:14;21.60;99.90
2162;DHT22;1087;50.226;8.682;2022-09-09T14:22:41;21.60;99.90
2162;DHT22;1087;50.226;8.682;2022-09-09T14:25:07;21.50;99.90
2162;DHT22;1087;50.226;8.682;2022-09-09T14:27:33;21.40;99.90
2162;DHT22;1087;50.226;8.682;2022-09-09T14:29:59;21.30;99.90
2162;DHT22;1087;50.226;8.682;2022-09-09T14:32:26;21.10;99.90
2162;DHT22;1087;50.226;8.682;2022-09-09T14:34:52;21.10;99.90
2162;DHT22;1087;50.226;8.682;2022-09-09T14:37:18;20.90;99.90
2162;DHT22;1087;50.226;8.682;2022-09-09T14:39:44;20.90;99.90
2162;DHT22;1087;50.226;8.682;2022-09-09T14:42:13;20.90;99.90
2162;DHT22;1087;50.226;8.682;2022-09-09T14:44:39;20.90;99.90
2162;DHT22;1087;50.226;8.682;2022-09-09T14:47:06;20.90;99.90
2162;DHT22;1087;50.226;8.682;2022-09-09T14:49:33;20.90;99.90
2162;DHT22;1087;50.226;8.682;2022-09-09T14:51:59;20.80;99.90
2162;DHT22;1087;50.226;8.682;2022-09-09T14:54:25;20.80;99.90
2162;DHT22;1087;50.226;8.682;2022-09-09T14:56:50;20.70;99.90
2162;DHT22;1087;50.226;8.682;2022-09-09T14:59:16;20.80;99.90
2162;DHT22;1087;50.226;8.682;2022-09-09T15:01:41;20.70;99.90
2162;DHT22;1087;50.226;8.682;2022-09-09T15:04:07;20.80;99.90
2162;DHT22;1087;50.226;8.682;2022-09-09T15:06:35;20.80;99.90
2162;DHT22;1087;50.226;8.682;2022-09-09T15:09:02;20.90;99.90
2162;DHT22;1087;50.226;8.682;2022-09-09T15:11:31;20.90;99.90
2162;DHT22;1087;50.226;8.682;2022-09-09T15:13:58;21.00;99.90
2162;DHT22;1087;50.226;8.682;2022-09-09T15:16:26;21.10;99.90
2162;DHT22;1087;50.226;8.682;2022-09-09T15:18:56;21.20;99.90
2162;DHT22;1087;50.226;8.682;2022-09-09T15:21:24;21.30;99.90
2162;DHT22;1087;50.226;8.682;2022-09-09T15:23:50;21.40;99.90
2162;DHT22;1087;50.226;8.682;2022-09-09T15:26:16;21.30;99.90
2162;DHT22;1087;50.226;8.682;2022-09-09T15:28:44;21.30;99.90
2162;DHT22;1087;50.226;8.682;2022-09-09T15:31:13;21.40;99.90
2162;DHT22;1087;50.226;8.682;2022-09-09T15:36:22;21.50;99.90
2162;DHT22;1087;50.226;8.682;2022-09-09T15:38:48;21.40;99.90
2162;DHT22;1087;50.226;8.682;2022-09-09T15:41:14;21.50;99.90
2162;DHT22;1087;50.226;8.682;2022-09-09T15:43:47;21.60;99.90
2162;DHT22;1087;50.226;8.682;2022-09-09T15:46:27;21.60;99.90
2162;DHT22;1087;50.226;8.682;2022-09-09T15:48:55;21.60;99.90
2162;DHT22;1087;50.226;8.682;2022-09-09T15:51:21;21.50;99.90
2162;DHT22;1087;50.226;8.682;2022-09-09T15:53:46;21.40;99.90
2162;DHT22;1087;50.226;8.682;2022-09-09T15:56:12;21.50;99.90
2162;DHT22;1087;50.226;8.682;2022-09-09T15:58:38;21.60;99.90
2162;DHT22;1087;50.226;8.682;2022-09-09T16:01:07;21.40;99.90
2162;DHT22;1087;50.226;8.682;2022-09-09T16:03:34;21.30;99.90
2162;DHT22;1087;50.226;8.682;2022-09-09T16:06:00;21.20;99.90
2162;DHT22;1087;50.226;8.682;2022-09-09T16:08:32;21.20;99.90
2162;DHT22;1087;50.226;8.682;2022-09-09T16:11:07;21.20;99.90
2162;DHT22;1087;50.226;8.682;2022-09-09T16:13:38;21.20;99.90
2162;DHT22;1087;50.226;8.682;2022-09-09T16:16:05;21.20;99.90
2162;DHT22;1087;50.226;8.682;2022-09-09T16:18:42;21.20;99.90
2162;DHT22;1087;50.226;8.682;2022-09-09T16:21:14;21.20;99.90
2162;DHT22;1087;50.226;8.682;2022-09-09T16:23:40;21.10;99.90
2162;DHT22;1087;50.226;8.682;2022-09-09T16:26:05;21.10;99.90
2162;DHT22;1087;50.226;8.682;2022-09-09T16:28:31;21.00;99.90
2162;DHT22;1087;50.226;8.682;2022-09-09T16:30:57;21.00;99.90
2162;DHT22;1087;50.226;8.682;2022-09-09T16:33:23;20.90;99.90
2162;DHT22;1087;50.226;8.682;2022-09-09T16:35:49;20.90;99.90
2162;DHT22;1087;50.226;8.682;2022-09-09T16:38:14;21.00;99.90
2162;DHT22;1087;50.226;8.682;2022-09-09T16:40:40;20.80;99.90
2162;DHT22;1087;50.226;8.682;2022-09-09T16:43:07;20.70;99.90
2162;DHT22;1087;50.226;8.682;2022-09-09T16:45:33;20.60;99.90
2162;DHT22;1087;50.226;8.682;2022-09-09T16:47:59;20.70;99.90
2162;DHT22;1087;50.226;8.682;2022-09-09T16:50:26;20.70;99.90
2162;DHT22;1087;50.226;8.682;2022-09-09T16:52:52;20.70;99.90
2162;DHT22;1087;50.226;8.682;2022-09-09T16:55:18;20.50;99.90
2162;DHT22;1087;50.226;8.682;2022-09-09T16:57:46;20.70;99.90
2162;DHT22;1087;50.226;8.682;2022-09-09T17:00:15;20.60;99.90
2162;DHT22;1087;50.226;8.682;2022-09-09T17:02:42;20.50;99.90
2162;DHT22;1087;50.226;8.682;2022-09-09T17:05:08;20.50;99.90
2162;DHT22;1087;50.226;8.682;2022-09-09T17:07:34;20.40;99.90
2162;DHT22;1087;50.226;8.682;2022-09-09T17:10:01;20.40;99.90
2162;DHT22;1087;50.226;8.682;2022-09-09T17:12:26;20.40;99.90
2162;DHT22;1087;50.226;8.682;2022-09-09T17:14:52;20.40;99.90
2162;DHT22;1087;50.226;8.682;2022-09-09T17:17:17;20.30;99.90
2162;DHT22;1087;50.226;8.682;2022-09-09T17:19:43;20.30;99.90
2162;DHT22;1087;50.226;8.682;2022-09-09T17:22:08;20.30;99.90
2162;DHT22;1087;50.226;8.682;2022-09-09T17:24:35;20.30;99.90
2162;DHT22;1087;50.226;8.682;2022-09-09T17:27:00;20.40;99.90
2162;DHT22;1087;50.226;8.682;2022-09-09T17:29:27;20.30;99.90
2162;DHT22;1087;50.226;8.682;2022-09-09T17:31:53;20.30;99.90
2162;DHT22;1087;50.226;8.682;2022-09-09T17:34:20;20.30;99.90
2162;DHT22;1087;50.226;8.682;2022-09-09T17:36:46;20.30;99.90
2162;DHT22;1087;50.226;8.682;2022-09-09T17:39:11;20.20;99.90
2162;DHT22;1087;50.226;8.682;2022-09-09T17:41:39;20.20;99.90
2162;DHT22;1087;50.226;8.682;2022-09-09T17:44:06;20.30;99.90
2162;DHT22;1087;50.226;8.682;2022-09-09T17:46:37;20.20;99.90
2162;DHT22;1087;50.226;8.682;2022-09-09T17:49:07;20.20;99.90
2162;DHT22;1087;50.226;8.682;2022-09-09T17:51:35;20.30;99.90
2162;DHT22;1087;50.226;8.682;2022-09-09T17:54:04;20.30;99.90
2162;DHT22;1087;50.226;8.682;2022-09-09T17:56:31;20.40;99.90
2162;DHT22;1087;50.226;8.682;2022-09-09T17:58:59;20.40;99.90
2162;DHT22;1087;50.226;8.682;2022-09-09T18:01:30;20.30;99.90